Time;durP1;ratioP1;P1;durP2;ratioP2;P2;SDS_P1;SDS_P2;PMS_P1;PMS_P2;Temp;Humidity;BMP_temperature;BMP_pressure;BME280_temperature;BME280_humidity;BME280_pressure;Samples;Min_cycle;Max_cycle;Signal;HPM_P1;HPM_P2
2021/10/29 00:00:40;;;;;;;39.75;20.83;;;8.20;99.90;;;;;;4997755;28;20297;-90
2021/10/29 00:03:06;;;;;;;32.65;20.95;;;8.20;99.90;;;;;;4997351;28;20473;-89
2021/10/29 00:05:33;;;;;;;36.42;21.15;;;8.30;99.90;;;;;;5013898;28;20041;-90
2021/10/29 00:07:59;;;;;;;33.42;20.67;;;8.20;99.90;;;;;;4997798;28;20081;-89
2021/10/29 00:10:28;;;;;;;35.03;21.02;;;8.20;99.90;;;;;;5013730;28;20040;-89
2021/10/29 00:12:55;;;;;;;37.40;21.15;;;8.20;99.90;;;;;;5014102;28;20041;-89
2021/10/29 00:15:20;;;;;;;31.08;19.90;;;8.20;99.90;;;;;;5013780;28;20144;-88
2021/10/29 00:17:47;;;;;;;34.65;20.90;;;8.20;99.90;;;;;;5013999;28;20073;-88
2021/10/29 00:20:13;;;;;;;35.95;21.48;;;8.20;99.90;;;;;;5013554;28;20045;-88
2021/10/29 00:22:38;;;;;;;35.03;21.23;;;8.20;99.90;;;;;;5013890;28;20041;-88
2021/10/29 00:25:05;;;;;;;33.83;21.02;;;8.20;99.90;;;;;;5013764;28;20510;-88
2021/10/29 00:27:31;;;;;;;38.42;20.00;;;8.20;99.90;;;;;;5013527;28;20041;-89
2021/10/29 00:29:57;;;;;;;41.13;21.17;;;8.20;99.90;;;;;;4997396;28;20037;-87
2021/10/29 00:32:23;;;;;;;37.13;21.00;;;8.10;99.90;;;;;;5013386;28;20060;-89
2021/10/29 00:34:49;;;;;;;34.90;20.25;;;8.10;99.90;;;;;;5013627;28;20045;-88
2021/10/29 00:37:15;;;;;;;42.13;21.20;;;8.00;99.90;;;;;;5013154;28;20077;-88
2021/10/29 00:39:41;;;;;;;36.08;21.38;;;8.00;99.90;;;;;;4997132;28;20049;-89
2021/10/29 00:42:07;;;;;;;33.40;21.92;;;7.90;99.90;;;;;;5016348;28;20160;-88
2021/10/29 00:44:32;;;;;;;35.65;21.85;;;7.90;99.90;;;;;;5000538;28;20182;-89
2021/10/29 00:46:58;;;;;;;46.75;23.45;;;7.90;99.90;;;;;;5000784;28;20076;-89
2021/10/29 00:49:24;;;;;;;40.67;22.23;;;7.80;99.90;;;;;;5000723;28;20044;-89
2021/10/29 00:51:50;;;;;;;34.00;21.70;;;7.80;99.90;;;;;;5017513;28;20045;-89
2021/10/29 00:54:18;;;;;;;35.53;20.98;;;7.70;99.90;;;;;;5017199;28;20465;-88
2021/10/29 00:56:45;;;;;;;46.42;22.73;;;7.80;99.90;;;;;;5017708;28;20065;-90
2021/10/29 00:59:11;;;;;;;32.85;21.70;;;7.70;99.90;;;;;;5016934;28;20048;-89
2021/10/29 01:01:36;;;;;;;43.38;22.30;;;7.70;99.90;;;;;;5000837;28;20050;-89
2021/10/29 01:04:03;;;;;;;34.50;20.73;;;7.70;99.90;;;;;;5017037;28;20048;-91
2021/10/29 01:06:29;;;;;;;39.13;21.10;;;7.70;99.90;;;;;;5016969;28;20469;-89
2021/10/29 01:08:55;;;;;;;35.88;22.20;;;7.70;99.90;;;;;;5016845;28;20677;-88
2021/10/29 01:11:22;;;;;;;42.08;22.08;;;7.70;99.90;;;;;;5016468;28;20046;-90
2021/10/29 01:13:49;;;;;;;38.15;21.08;;;7.70;99.90;;;;;;5016803;28;20448;-89
2021/10/29 01:16:16;;;;;;;37.50;22.55;;;7.70;99.90;;;;;;5016668;28;20068;-88
2021/10/29 01:18:42;;;;;;;36.70;20.70;;;7.70;99.90;;;;;;5016807;28;20033;-88
2021/10/29 01:21:09;;;;;;;36.80;20.55;;;7.70;99.90;;;;;;5016465;28;20129;-88
2021/10/29 01:23:36;;;;;;;48.15;22.70;;;7.70;99.90;;;;;;5016262;28;20053;-88
2021/10/29 01:26:08;;;;;;;45.65;23.35;;;7.70;99.90;;;;;;5016321;28;20495;-89
2021/10/29 01:28:34;;;;;;;49.17;22.35;;;7.80;99.90;;;;;;5016165;28;20042;-87
2021/10/29 01:31:01;;;;;;;36.17;21.08;;;7.70;99.90;;;;;;5016209;28;20480;-88
2021/10/29 01:33:28;;;;;;;43.90;22.67;;;7.70;99.90;;;;;;5016059;28;20049;-88
2021/10/29 01:35:54;;;;;;;40.17;22.08;;;7.70;99.90;;;;;;5000154;28;20096;-89
2021/10/29 01:38:21;;;;;;;40.33;22.45;;;7.80;99.90;;;;;;5015919;28;20057;-88
2021/10/29 01:40:47;;;;;;;42.58;21.85;;;7.80;99.90;;;;;;5016460;28;20056;-88
2021/10/29 01:43:13;;;;;;;34.72;20.73;;;7.80;99.90;;;;;;4999827;28;20511;-88
2021/10/29 01:45:39;;;;;;;42.40;20.77;;;7.80;99.90;;;;;;5015747;28;20041;-88
2021/10/29 01:48:05;;;;;;;36.40;20.73;;;7.80;99.90;;;;;;5016169;28;20038;-87
2021/10/29 01:50:30;;;;;;;41.88;20.83;;;7.80;99.90;;;;;;5015945;28;20053;-88
2021/10/29 01:52:56;;;;;;;34.22;20.35;;;7.80;99.90;;;;;;5015750;28;20077;-89
2021/10/29 01:55:22;;;;;;;37.42;19.35;;;7.80;99.90;;;;;;5015445;28;20465;-88
2021/10/29 01:57:47;;;;;;;36.72;19.38;;;7.80;99.90;;;;;;5016064;28;20045;-88
2021/10/29 02:00:13;;;;;;;36.10;18.88;;;7.90;99.90;;;;;;4999902;28;20103;-88
2021/10/29 02:02:40;;;;;;;45.90;21.63;;;7.80;99.90;;;;;;5015302;28;20041;-88
2021/10/29 02:05:07;;;;;;;37.58;20.02;;;7.90;99.90;;;;;;4999132;28;20091;-88
2021/10/29 02:07:33;;;;;;;36.50;18.83;;;7.80;99.90;;;;;;5015546;28;20046;-88
2021/10/29 02:09:59;;;;;;;38.20;19.95;;;7.80;99.90;;;;;;4999447;28;20096;-88
2021/10/29 02:12:25;;;;;;;34.78;19.15;;;7.80;99.90;;;;;;5015457;28;20084;-88
2021/10/29 02:14:50;;;;;;;32.78;19.60;;;7.90;99.90;;;;;;4999455;28;20471;-89
2021/10/29 02:17:16;;;;;;;33.70;19.83;;;7.90;99.90;;;;;;4999229;28;20038;-87
2021/10/29 02:19:42;;;;;;;30.70;19.88;;;7.80;99.90;;;;;;4999441;28;20053;-88
2021/10/29 02:22:08;;;;;;;34.75;21.17;;;7.90;99.90;;;;;;5015172;28;20465;-88
2021/10/29 02:24:34;;;;;;;38.17;21.67;;;7.90;99.90;;;;;;5015027;28;20041;-87
2021/10/29 02:27:01;;;;;;;39.20;21.15;;;7.90;99.90;;;;;;5015607;28;20120;-87
2021/10/29 02:29:27;;;;;;;34.63;21.80;;;7.90;99.90;;;;;;4998903;28;20042;-88
2021/10/29 02:31:53;;;;;;;33.53;20.48;;;8.00;99.90;;;;;;4983206;28;20042;-89
2021/10/29 02:34:19;;;;;;;41.30;20.13;;;8.00;99.90;;;;;;4998686;28;20077;-90
2021/10/29 02:36:45;;;;;;;32.83;20.65;;;8.00;99.90;;;;;;5015134;28;20094;-87
2021/10/29 02:39:10;;;;;;;34.90;19.88;;;8.00;99.90;;;;;;5015297;28;20037;-86
2021/10/29 02:41:36;;;;;;;37.63;20.17;;;8.00;99.90;;;;;;4998375;28;20694;-88
2021/10/29 02:44:03;;;;;;;28.52;19.05;;;8.00;99.90;;;;;;5014985;28;20056;-89
2021/10/29 02:46:29;;;;;;;40.28;19.80;;;8.00;99.90;;;;;;5014657;28;20053;-89
2021/10/29 02:48:55;;;;;;;37.53;20.70;;;7.90;99.90;;;;;;5015295;28;20049;-89
2021/10/29 02:51:21;;;;;;;35.22;21.80;;;7.90;99.90;;;;;;4998249;28;20051;-89
2021/10/29 02:53:46;;;;;;;34.95;20.08;;;7.90;99.90;;;;;;5015240;28;20038;-88
2021/10/29 02:56:12;;;;;;;35.22;21.30;;;7.90;99.90;;;;;;5014848;28;20384;-88
2021/10/29 02:58:38;;;;;;;34.35;19.67;;;7.90;99.90;;;;;;5014673;28;20041;-87
2021/10/29 03:01:04;;;;;;;33.33;19.63;;;7.90;99.90;;;;;;5014947;28;20045;-88
2021/10/29 03:03:30;;;;;;;36.42;18.92;;;7.80;99.90;;;;;;5014595;28;20060;-88
2021/10/29 03:05:56;;;;;;;35.55;19.38;;;7.90;99.90;;;;;;4997408;28;20458;-87
2021/10/29 03:08:22;;;;;;;33.70;20.52;;;7.80;99.90;;;;;;4998098;28;20377;-89
2021/10/29 03:10:48;;;;;;;34.63;20.75;;;7.80;99.90;;;;;;5014823;28;20470;-88
2021/10/29 03:13:16;;;;;;;44.08;20.38;;;7.80;99.90;;;;;;5014604;28;20092;-87
2021/10/29 03:15:42;;;;;;;33.75;18.52;;;7.70;99.90;;;;;;5014282;28;20127;-88
2021/10/29 03:18:08;;;;;;;36.80;19.58;;;7.70;99.90;;;;;;5014833;28;20029;-88
2021/10/29 03:20:33;;;;;;;32.67;18.38;;;7.70;99.90;;;;;;4997796;28;20543;-89
2021/10/29 03:22:59;;;;;;;31.52;18.38;;;7.70;99.90;;;;;;5014506;28;20049;-88
2021/10/29 03:25:25;;;;;;;28.13;18.40;;;7.70;99.90;;;;;;5014117;28;20095;-88
2021/10/29 03:27:51;;;;;;;37.58;18.73;;;7.70;99.90;;;;;;5014392;28;20052;-89
2021/10/29 03:30:17;;;;;;;37.10;19.55;;;7.70;99.90;;;;;;4998008;28;20037;-88
2021/10/29 03:32:44;;;;;;;36.25;18.98;;;7.70;99.90;;;;;;5013912;28;20148;-87
2021/10/29 03:35:10;;;;;;;44.70;19.70;;;7.70;99.90;;;;;;5014185;28;20064;-88
2021/10/29 03:42:59;;;;;;;34.10;18.85;;;7.70;99.90;;;;;;5014261;28;20053;-89
2021/10/29 03:45:25;;;;;;;30.27;18.30;;;7.60;99.90;;;;;;5013617;28;20041;-88
2021/10/29 03:47:54;;;;;;;35.72;17.48;;;7.60;99.90;;;;;;5014033;28;20377;-88
2021/10/29 03:50:26;;;;;;;33.13;17.35;;;7.60;99.90;;;;;;5014280;28;20044;-88
2021/10/29 03:53:07;;;;;;;24.85;16.20;;;7.70;99.90;;;;;;5014400;28;20049;-89
2021/10/29 03:55:36;;;;;;;27.45;15.98;;;7.70;99.90;;;;;;5013654;28;20096;-88
2021/10/29 03:58:02;;;;;;;25.35;14.93;;;7.70;99.90;;;;;;5013941;28;20049;-88
2021/10/29 04:00:30;;;;;;;27.45;15.40;;;7.60;99.90;;;;;;5013326;28;20038;-89
2021/10/29 04:03:01;;;;;;;27.85;15.25;;;7.70;99.90;;;;;;5014124;28;20045;-87
2021/10/29 04:05:28;;;;;;;34.95;16.35;;;7.60;99.90;;;;;;5013380;28;20056;-88
2021/10/29 04:07:54;;;;;;;27.75;15.02;;;7.60;99.90;;;;;;5014013;28;20095;-88
2021/10/29 04:10:24;;;;;;;24.42;14.80;;;7.60;99.90;;;;;;5013827;28;20041;-88
2021/10/29 04:12:51;;;;;;;26.98;14.05;;;7.70;99.90;;;;;;5013858;28;20057;-89
2021/10/29 04:15:17;;;;;;;29.92;15.38;;;7.70;99.90;;;;;;5013789;28;20388;-88
2021/10/29 04:17:43;;;;;;;23.60;13.95;;;7.60;99.90;;;;;;5013256;28;20124;-89
2021/10/29 04:20:09;;;;;;;25.08;15.20;;;7.60;99.90;;;;;;5013614;28;20045;-87
2021/10/29 04:22:34;;;;;;;28.92;14.02;;;7.60;99.90;;;;;;5013601;28;20473;-88
2021/10/29 04:25:00;;;;;;;25.67;13.65;;;7.70;99.90;;;;;;4997381;28;20091;-88
2021/10/29 04:27:31;;;;;;;26.10;13.93;;;7.70;99.90;;;;;;4997169;28;20045;-88
2021/10/29 04:29:59;;;;;;;31.35;15.15;;;7.70;99.90;;;;;;5013910;28;20377;-88
2021/10/29 04:32:24;;;;;;;26.33;14.45;;;7.70;99.90;;;;;;5013908;28;20485;-88
2021/10/29 04:34:51;;;;;;;32.80;15.07;;;7.70;99.90;;;;;;5013349;28;20080;-87
2021/10/29 04:37:17;;;;;;;22.83;15.30;;;7.80;99.90;;;;;;4997400;28;20088;-89
2021/10/29 04:39:45;;;;;;;26.45;15.93;;;7.80;99.90;;;;;;4996746;28;20076;-88
2021/10/29 04:42:10;;;;;;;27.38;14.48;;;7.70;99.90;;;;;;5013764;28;20050;-88
2021/10/29 04:44:36;;;;;;;30.45;14.63;;;7.80;99.90;;;;;;4996796;28;20465;-88
2021/10/29 04:47:02;;;;;;;25.60;15.07;;;7.80;99.90;;;;;;4997373;28;20048;-88
2021/10/29 04:49:27;;;;;;;21.30;15.15;;;7.80;99.90;;;;;;5012953;28;20037;-89
2021/10/29 04:51:53;;;;;;;25.40;14.05;;;7.80;99.90;;;;;;4997132;28;20042;-88
2021/10/29 04:54:19;;;;;;;21.42;13.30;;;7.90;99.90;;;;;;5013820;28;20153;-88
2021/10/29 04:56:47;;;;;;;22.20;13.43;;;7.80;99.90;;;;;;5013526;28;20429;-89
2021/10/29 04:59:15;;;;;;;22.05;13.43;;;7.90;99.90;;;;;;5013708;28;20366;-89
2021/10/29 05:01:43;;;;;;;22.75;13.77;;;7.80;99.90;;;;;;4997097;28;20484;-89
2021/10/29 05:04:09;;;;;;;20.67;13.50;;;7.90;99.90;;;;;;5013330;28;20042;-89
2021/10/29 05:06:35;;;;;;;27.50;13.15;;;7.90;99.90;;;;;;4996910;28;20067;-89
2021/10/29 05:09:02;;;;;;;20.85;12.98;;;7.90;99.90;;;;;;4996875;28;20045;-89
2021/10/29 05:11:28;;;;;;;24.60;13.35;;;7.90;99.90;;;;;;5013365;28;20128;-89
2021/10/29 05:13:53;;;;;;;21.05;13.77;;;7.90;99.90;;;;;;5013113;28;20128;-88
2021/10/29 05:16:19;;;;;;;22.65;13.95;;;7.90;99.90;;;;;;4997296;28;20046;-89
2021/10/29 05:18:44;;;;;;;22.05;13.32;;;8.00;99.90;;;;;;4996765;28;20057;-87
2021/10/29 05:21:10;;;;;;;22.95;12.20;;;8.00;99.90;;;;;;5012745;28;20188;-88
2021/10/29 05:23:36;;;;;;;21.92;12.98;;;7.90;99.90;;;;;;5012978;28;20064;-89
2021/10/29 05:26:02;;;;;;;28.60;13.38;;;7.90;99.90;;;;;;5012884;28;20045;-88
2021/10/29 05:28:28;;;;;;;23.88;13.07;;;7.90;99.90;;;;;;5014668;28;20041;-88
2021/10/29 05:30:53;;;;;;;28.13;15.65;;;7.80;99.90;;;;;;5016165;28;20045;-89
2021/10/29 05:33:19;;;;;;;23.48;16.80;;;7.90;99.90;;;;;;5000282;28;20033;-88
2021/10/29 05:35:45;;;;;;;33.03;18.75;;;7.90;99.90;;;;;;5016295;28;20062;-87
2021/10/29 05:38:11;;;;;;;31.75;20.45;;;7.80;99.90;;;;;;5000000;28;20048;-88
2021/10/29 05:40:37;;;;;;;23.50;17.42;;;7.90;99.90;;;;;;5016053;28;20053;-88
2021/10/29 05:43:03;;;;;;;26.80;14.27;;;7.90;99.90;;;;;;4999974;28;20041;-88
2021/10/29 05:45:29;;;;;;;23.77;14.27;;;7.90;99.90;;;;;;5016141;28;20060;-89
2021/10/29 05:48:00;;;;;;;20.48;13.23;;;8.00;99.90;;;;;;5016063;28;20438;-88
2021/10/29 05:50:26;;;;;;;18.45;12.05;;;8.00;99.90;;;;;;5016493;28;20053;-87
2021/10/29 05:52:51;;;;;;;26.83;12.52;;;8.10;99.90;;;;;;5015585;28;20461;-88
2021/10/29 05:55:18;;;;;;;21.58;12.18;;;8.10;99.90;;;;;;5016141;28;20041;-88
2021/10/29 05:57:49;;;;;;;24.05;13.20;;;8.20;99.90;;;;;;5015617;28;20389;-88
2021/10/29 06:00:18;;;;;;;23.10;13.20;;;8.20;99.90;;;;;;4999967;28;20384;-88
2021/10/29 06:02:44;;;;;;;26.42;12.55;;;8.20;99.90;;;;;;5015802;28;20068;-88
2021/10/29 06:05:11;;;;;;;23.80;13.18;;;8.20;99.90;;;;;;5015886;28;20038;-88
2021/10/29 06:07:37;;;;;;;19.48;13.80;;;8.20;99.90;;;;;;4999147;28;20053;-88
2021/10/29 06:10:08;;;;;;;28.77;16.35;;;8.20;99.90;;;;;;4999702;28;20465;-88
2021/10/29 06:12:36;;;;;;;29.25;16.42;;;8.20;99.90;;;;;;4999485;28;20045;-89
2021/10/29 06:15:02;;;;;;;23.77;14.18;;;8.20;99.90;;;;;;5015889;28;20048;-87
2021/10/29 06:17:29;;;;;;;24.60;16.35;;;8.20;99.90;;;;;;5015858;28;20085;-88
2021/10/29 06:19:55;;;;;;;22.25;14.27;;;8.20;99.90;;;;;;5015394;28;20435;-87
2021/10/29 06:22:24;;;;;;;18.02;11.38;;;8.10;99.90;;;;;;4982722;28;20089;-88
2021/10/29 06:24:51;;;;;;;19.70;10.63;;;8.10;99.90;;;;;;5015056;28;20049;-87
2021/10/29 06:29:43;;;;;;;19.63;11.73;;;8.10;99.90;;;;;;5015116;28;20048;-88
2021/10/29 06:32:09;;;;;;;21.33;11.60;;;8.10;99.90;;;;;;4999197;28;20053;-87
2021/10/29 06:34:36;;;;;;;17.02;10.98;;;8.00;99.90;;;;;;4999053;28;20469;-89
2021/10/29 06:37:07;;;;;;;20.55;10.50;;;8.00;99.90;;;;;;5014820;28;20064;-88
2021/10/29 06:39:33;;;;;;;18.52;11.20;;;8.00;99.90;;;;;;5014911;28;20173;-88
2021/10/29 06:42:04;;;;;;;19.83;11.00;;;8.00;99.90;;;;;;5014871;28;20048;-87
2021/10/29 06:44:39;;;;;;;23.77;11.35;;;8.00;99.90;;;;;;4999831;28;20077;-87
2021/10/29 06:59:13;;;;;;;21.90;12.73;;;8.00;99.90;;;;;;5001216;28;20045;-88
2021/10/29 07:41:07;;;;;;;18.10;10.05;;;8.70;99.90;;;;;;5010101;28;20425;-88
2021/10/29 07:43:42;;;;;;;12.52;9.27;;;8.80;99.90;;;;;;5010856;28;20038;-87
2021/10/29 07:46:07;;;;;;;16.42;10.05;;;8.80;99.90;;;;;;5010286;28;20056;-87
2021/10/29 07:48:34;;;;;;;15.98;11.43;;;8.90;99.90;;;;;;4977913;28;20038;-88
2021/10/29 07:51:04;;;;;;;20.73;9.82;;;9.00;99.90;;;;;;5009553;28;20042;-88
2021/10/29 07:53:30;;;;;;;;;;;9.10;99.90;;;;;;5011152;28;20124;-89
2021/10/29 07:55:58;;;;;;;21.20;9.55;;;9.20;99.90;;;;;;4993903;28;20003;-89
2021/10/29 07:58:25;;;;;;;13.75;10.15;;;9.20;99.90;;;;;;5010422;28;20045;-89
2021/10/29 08:00:51;;;;;;;16.42;10.02;;;9.30;99.90;;;;;;5009960;28;20042;-88
2021/10/29 08:03:18;;;;;;;21.17;10.00;;;9.30;99.90;;;;;;5010333;28;20092;-89
2021/10/29 08:05:46;;;;;;;15.52;9.75;;;9.40;99.90;;;;;;5009973;28;20042;-89
2021/10/29 08:08:19;;;;;;;12.85;9.10;;;9.40;99.90;;;;;;5010573;28;20104;-88
2021/10/29 08:10:46;;;;;;;16.58;9.73;;;9.50;99.90;;;;;;5010155;28;20092;-88
2021/10/29 08:13:11;;;;;;;12.07;8.95;;;9.60;99.90;;;;;;5010523;28;20389;-89
2021/10/29 08:15:38;;;;;;;14.30;8.65;;;9.60;99.90;;;;;;5010528;28;20042;-88
2021/10/29 08:18:05;;;;;;;16.77;8.85;;;9.70;99.90;;;;;;5009722;28;20041;-87
2021/10/29 08:20:32;;;;;;;19.02;9.18;;;9.80;99.90;;;;;;5010301;28;20104;-86
2021/10/29 08:22:58;;;;;;;18.27;9.48;;;9.80;99.90;;;;;;5009763;28;20141;-87
2021/10/29 08:25:24;;;;;;;15.57;8.52;;;9.80;99.90;;;;;;5010206;28;20133;-86
2021/10/29 08:27:50;;;;;;;15.02;9.75;;;9.90;99.90;;;;;;5009947;28;20474;-87
2021/10/29 08:30:16;;;;;;;14.40;8.15;;;10.00;99.90;;;;;;4993899;28;20042;-87
2021/10/29 08:32:46;;;;;;;18.27;8.77;;;10.10;99.90;;;;;;4994170;28;20048;-87
2021/10/29 08:35:11;;;;;;;13.07;8.30;;;10.20;99.90;;;;;;5010445;28;20053;-87
2021/10/29 08:37:40;;;;;;;12.68;7.97;;;10.30;99.90;;;;;;5010323;28;20285;-87
2021/10/29 08:40:07;;;;;;;13.85;7.70;;;10.30;99.90;;;;;;5009772;28;20192;-88
2021/10/29 08:42:34;;;;;;;14.70;8.32;;;10.40;99.90;;;;;;4993929;28;20143;-87
2021/10/29 08:45:01;;;;;;;14.80;7.68;;;10.50;99.90;;;;;;5009756;28;20037;-87
2021/10/29 08:47:27;;;;;;;13.23;7.90;;;10.60;99.90;;;;;;5010214;28;20054;-87
2021/10/29 08:49:53;;;;;;;12.20;7.13;;;10.70;99.90;;;;;;4993685;28;20045;-88
2021/10/29 08:52:21;;;;;;;9.52;7.20;;;10.80;99.90;;;;;;5009983;28;20560;-87
2021/10/29 08:54:50;;;;;;;12.60;7.38;;;10.80;99.90;;;;;;5009659;28;20050;-89
2021/10/29 08:57:16;;;;;;;10.43;7.90;;;10.90;99.90;;;;;;5010304;28;20081;-87
2021/10/29 08:59:46;;;;;;;15.48;7.65;;;11.10;99.90;;;;;;4993785;28;20085;-87
2021/10/29 09:33:08;;;;;;;;;;;12.10;99.90;;;;;;5016890;28;20048;-88
2021/10/29 09:35:36;;;;;;;16.55;7.85;;;12.20;99.90;;;;;;5015872;28;19917;-88
2021/10/29 09:38:14;;;;;;;10.38;6.40;;;12.30;99.90;;;;;;4983734;28;20167;-88
2021/10/29 09:40:56;;;;;;;8.55;5.55;;;12.40;99.90;;;;;;5016601;28;20049;-88
2021/10/29 09:43:24;;;;;;;8.98;5.72;;;12.50;99.90;;;;;;5016416;28;20049;-88
2021/10/29 09:46:13;;;;;;;7.93;5.57;;;12.50;99.90;;;;;;5015562;28;20041;-89
2021/10/29 09:51:13;;;;;;;8.82;5.80;;;12.70;99.90;;;;;;5015458;28;20072;-88
2021/10/29 09:54:43;;;;;;;13.90;6.20;;;12.70;99.90;;;;;;5016297;28;20052;-88
2021/10/29 09:59:35;;;;;;;10.52;5.95;;;12.90;99.90;;;;;;4937162;29;20538;-87
2021/10/29 10:02:03;;;;;;;15.10;6.05;;;13.00;99.90;;;;;;5015864;28;20096;-88
2021/10/29 10:04:30;;;;;;;14.60;5.35;;;13.10;99.90;;;;;;5015767;28;20044;-89
2021/10/29 10:06:58;;;;;;;9.80;6.00;;;13.20;99.90;;;;;;5015387;28;20500;-88
2021/10/29 10:09:24;;;;;;;11.20;7.03;;;13.30;99.90;;;;;;5015890;28;20041;-88
2021/10/29 10:11:52;;;;;;;14.60;6.13;;;13.40;99.90;;;;;;5015746;28;20052;-89
2021/10/29 10:14:18;;;;;;;14.68;6.20;;;13.40;99.90;;;;;;4998867;28;20052;-89
2021/10/29 10:16:45;;;;;;;14.63;4.95;;;13.50;99.90;;;;;;4999400;28;20045;-88
2021/10/29 10:19:11;;;;;;;12.70;4.90;;;13.50;99.90;;;;;;5015178;28;20057;-89
2021/10/29 10:21:42;;;;;;;10.85;5.57;;;13.60;99.90;;;;;;4982974;28;20385;-89
2021/10/29 10:24:14;;;;;;;10.95;4.70;;;13.70;99.90;;;;;;4998740;28;20053;-89
2021/10/29 10:40:43;;;;;;;7.88;5.00;;;14.10;99.90;;;;;;5014882;28;20045;-88
2021/10/29 10:49:07;;;;;;;9.75;4.75;;;14.30;99.90;;;;;;5014942;28;20128;-88
2021/10/29 10:54:17;;;;;;;12.90;5.82;;;14.50;99.90;;;;;;5014391;28;20474;-89
2021/10/29 10:57:17;;;;;;;11.65;5.90;;;14.60;99.90;;;;;;5014642;28;20049;-89
2021/10/29 11:09:53;;;;;;;11.93;6.70;;;15.00;99.90;;;;;;5014771;28;20053;-88
2021/10/29 11:10:25;;;;;;;8.38;5.07;;;15.00;99.90;;;;;;5014090;28;20655;-87
2021/10/29 11:12:51;;;;;;;9.07;5.35;;;15.10;99.90;;;;;;4997820;28;20064;-88
2021/10/29 11:15:16;;;;;;;15.82;5.97;;;15.00;99.90;;;;;;5013739;28;20128;-88
2021/10/29 11:18:00;;;;;;;13.57;5.78;;;15.00;99.90;;;;;;4997945;28;20073;-88
2021/10/29 11:23:21;;;;;;;6.57;4.90;;;15.00;99.90;;;;;;5013234;28;20056;-88
2021/10/29 11:26:04;;;;;;;7.93;4.55;;;15.00;99.90;;;;;;5013435;28;20133;-88
2021/10/29 11:28:37;;;;;;;11.00;4.75;;;14.90;99.90;;;;;;5014365;28;20052;-88
2021/10/29 11:31:11;;;;;;;5.72;4.10;;;14.90;99.90;;;;;;5013885;28;20086;-89
2021/10/29 11:33:45;;;;;;;12.20;4.88;;;14.90;99.90;;;;;;5014307;28;20045;-88
2021/10/29 11:36:14;;;;;;;8.07;4.85;;;15.00;99.90;;;;;;5013769;28;20049;-88
2021/10/29 11:38:45;;;;;;;9.57;4.30;;;15.00;99.90;;;;;;5014140;28;20076;-88
2021/10/29 11:41:14;;;;;;;13.05;4.32;;;15.10;99.90;;;;;;5014230;28;20041;-88
2021/10/29 11:43:40;;;;;;;6.80;3.58;;;15.10;99.90;;;;;;4998007;28;20389;-88
2021/10/29 11:46:08;;;;;;;8.60;3.85;;;15.20;99.90;;;;;;4996654;28;20037;-88
2021/10/29 11:48:36;;;;;;;13.07;3.65;;;15.20;99.90;;;;;;5013697;28;20091;-89
2021/10/29 11:51:09;;;;;;;7.82;4.00;;;15.30;99.90;;;;;;5013081;28;20045;-88
2021/10/29 11:53:43;;;;;;;6.00;3.55;;;15.40;99.90;;;;;;5013955;28;20042;-88
2021/10/29 12:07:24;;;;;;;7.25;3.95;;;15.50;99.90;;;;;;4994344;28;20096;-88
2021/10/29 12:09:51;;;;;;;5.97;3.60;;;15.60;99.90;;;;;;4997201;28;20037;-89
2021/10/29 12:12:21;;;;;;;7.03;3.70;;;15.60;99.90;;;;;;5012925;28;20081;-89
2021/10/29 12:14:49;;;;;;;9.93;3.83;;;15.60;99.90;;;;;;5013786;28;20033;-89
2021/10/29 12:17:30;;;;;;;8.98;4.03;;;15.60;99.90;;;;;;5013006;28;20045;-88
2021/10/29 12:20:03;;;;;;;5.78;3.78;;;15.50;99.90;;;;;;5013670;28;20363;-89
2021/10/29 12:25:46;;;;;;;6.70;3.57;;;15.50;99.90;;;;;;4997414;28;20461;-88
2021/10/29 12:28:00;;;;;;;3.70;3.40;;;15.50;99.90;;;;;;5010395;28;20060;-88
2021/10/29 13:01:29;;;;;;;4.88;3.35;;;16.10;99.90;;;;;;5015900;28;20168;-88
2021/10/29 13:04:18;;;;;;;5.13;3.60;;;16.10;99.90;;;;;;5016684;28;20109;-88
2021/10/29 13:06:45;;;;;;;10.65;3.67;;;16.10;99.90;;;;;;5016847;28;20508;-87
2021/10/29 13:09:21;;;;;;;7.38;4.03;;;16.10;99.90;;;;;;5016302;28;20045;-88
2021/10/29 13:11:54;;;;;;;4.75;3.28;;;16.10;99.90;;;;;;5016955;28;20470;-88
2021/10/29 13:14:29;;;;;;;6.35;3.78;;;16.10;99.90;;;;;;5016486;28;20187;-87
2021/10/29 13:16:56;;;;;;;7.38;3.53;;;16.10;99.90;;;;;;5016837;28;20037;-88
2021/10/29 13:19:36;;;;;;;10.90;3.22;;;16.00;99.90;;;;;;5016216;28;20384;-87
2021/10/29 13:52:12;;;;;;;13.98;4.03;;;16.00;99.90;;;;;;4999279;28;20390;-88
2021/10/29 14:29:46;;;;;;;9.50;4.00;;;15.40;99.90;;;;;;5011742;28;20481;-88
2021/10/29 14:32:36;;;;;;;6.22;3.78;;;15.30;99.90;;;;;;5010977;28;20077;-89
2021/10/29 14:35:03;;;;;;;7.68;3.90;;;15.30;99.90;;;;;;5009337;28;20049;-88
2021/10/29 14:40:08;;;;;;;7.70;3.88;;;15.30;99.90;;;;;;5008949;28;20050;-89
2021/10/29 14:42:39;;;;;;;5.43;4.10;;;15.30;99.90;;;;;;4993455;28;20264;-89
2021/10/29 14:45:17;;;;;;;5.00;3.72;;;15.40;99.90;;;;;;4993711;28;20046;-90
2021/10/29 15:01:06;;;;;;;7.13;3.53;;;15.80;99.90;;;;;;4994706;28;20053;-88
2021/10/29 15:28:43;;;;;;;8.77;3.35;;;15.50;99.90;;;;;;5007833;28;20042;-90
2021/10/29 15:33:48;;;;;;;7.20;3.83;;;15.40;99.90;;;;;;4992571;28;20045;-89
2021/10/29 15:41:52;;;;;;;8.77;3.90;;;15.00;99.90;;;;;;5007682;28;20140;-89
2021/10/29 15:44:22;;;;;;;5.25;3.72;;;14.90;99.90;;;;;;4991118;28;20184;-89
2021/10/29 15:51:55;;;;;;;6.70;4.13;;;14.50;99.90;;;;;;4994408;28;20359;-87
2021/10/29 15:54:22;;;;;;;8.02;3.70;;;14.40;99.90;;;;;;5010559;28;20041;-87
2021/10/29 15:56:57;;;;;;;9.50;4.07;;;14.30;99.90;;;;;;5011575;28;20667;-87
2021/10/29 16:18:20;;;;;;;5.43;3.80;;;13.60;99.90;;;;;;4996689;28;20041;-89
2021/10/29 16:20:46;;;;;;;8.60;4.32;;;13.50;99.90;;;;;;5010406;28;20042;-88
2021/10/29 16:23:12;;;;;;;5.32;3.30;;;13.40;99.90;;;;;;5010089;28;20586;-89
2021/10/29 16:25:49;;;;;;;11.85;3.58;;;13.40;99.90;;;;;;5011238;28;20049;-89
2021/10/29 16:28:16;;;;;;;9.73;4.00;;;13.40;99.90;;;;;;5010430;28;20046;-88
2021/10/29 16:30:42;;;;;;;8.38;3.80;;;13.30;99.90;;;;;;4993658;28;20045;-89
2021/10/29 16:33:23;;;;;;;6.97;3.72;;;13.20;99.90;;;;;;4994151;28;20046;-88
2021/10/29 16:35:50;;;;;;;8.80;3.72;;;13.20;99.90;;;;;;4994036;28;20133;-88
2021/10/29 16:38:16;;;;;;;9.00;3.60;;;13.20;99.90;;;;;;5010235;28;20049;-88
2021/10/29 16:40:42;;;;;;;13.52;3.28;;;13.10;99.90;;;;;;4993579;28;20088;-91
2021/10/29 16:43:08;;;;;;;9.00;3.67;;;13.10;99.90;;;;;;5010745;28;20084;-86
2021/10/29 16:45:40;;;;;;;8.73;4.05;;;13.00;99.90;;;;;;5009387;28;20473;-86
2021/10/29 16:48:06;;;;;;;7.43;3.85;;;13.00;99.90;;;;;;4994024;28;20116;-85
2021/10/29 16:50:31;;;;;;;10.93;3.88;;;13.00;99.90;;;;;;4993119;28;20048;-86
2021/10/29 16:52:57;;;;;;;5.97;4.03;;;13.00;99.90;;;;;;4993573;28;20052;-86
2021/10/29 16:55:23;;;;;;;4.47;3.58;;;13.00;99.90;;;;;;5009743;28;20473;-87
2021/10/29 16:57:49;;;;;;;5.22;3.72;;;12.90;99.90;;;;;;5010073;28;20042;-85
2021/10/29 17:00:15;;;;;;;5.07;3.40;;;12.90;99.90;;;;;;5009288;28;20072;-86
2021/10/29 17:02:41;;;;;;;9.38;4.00;;;12.90;99.90;;;;;;4992464;28;20038;-86
2021/10/29 17:05:08;;;;;;;6.50;4.18;;;12.90;99.90;;;;;;4993064;28;20042;-86
2021/10/29 17:07:34;;;;;;;12.02;4.10;;;12.90;99.90;;;;;;4993518;28;20068;-86
2021/10/29 17:10:07;;;;;;;6.82;3.53;;;12.90;99.90;;;;;;5010050;28;20034;-88
2021/10/29 17:12:33;;;;;;;8.85;3.72;;;12.80;99.90;;;;;;5009446;28;20489;-87
2021/10/29 17:14:59;;;;;;;6.63;4.07;;;12.80;99.90;;;;;;5009780;28;20045;-86
2021/10/29 17:17:24;;;;;;;4.95;3.60;;;12.80;99.90;;;;;;5009449;28;20125;-87
2021/10/29 17:19:50;;;;;;;9.10;3.45;;;12.80;99.90;;;;;;4993174;28;20060;-87
2021/10/29 17:22:16;;;;;;;8.35;3.97;;;12.80;99.90;;;;;;5009060;28;20089;-88
2021/10/29 17:24:44;;;;;;;9.77;3.88;;;12.80;99.90;;;;;;5011699;28;20049;-87
2021/10/29 17:27:10;;;;;;;4.20;3.80;;;12.70;99.90;;;;;;5013332;28;20594;-87
2021/10/29 17:29:36;;;;;;;8.82;3.88;;;12.70;99.90;;;;;;4996562;28;20128;-87
2021/10/29 17:32:02;;;;;;;8.18;3.30;;;12.60;99.90;;;;;;4997040;28;20077;-87
2021/10/29 17:34:29;;;;;;;9.43;4.05;;;12.70;99.90;;;;;;5012686;28;20096;-87
2021/10/29 17:36:54;;;;;;;6.50;4.07;;;12.70;99.90;;;;;;5013247;28;20052;-88
2021/10/29 17:39:22;;;;;;;12.13;3.83;;;12.70;99.90;;;;;;4996653;28;20042;-88
2021/10/29 17:41:48;;;;;;;6.30;3.78;;;12.60;99.90;;;;;;5012638;28;20053;-87
2021/10/29 17:44:15;;;;;;;7.05;4.22;;;12.60;99.90;;;;;;5013006;28;20382;-87
2021/10/29 17:46:41;;;;;;;10.55;3.95;;;12.70;99.90;;;;;;5011986;28;20054;-88
2021/10/29 17:49:09;;;;;;;14.20;4.50;;;12.70;99.90;;;;;;4996585;28;20042;-87
2021/10/29 17:51:35;;;;;;;14.85;4.07;;;12.70;99.90;;;;;;5012324;28;20053;-88
2021/10/29 17:54:01;;;;;;;5.32;3.90;;;12.70;99.90;;;;;;4996490;28;20100;-88
2021/10/29 17:56:26;;;;;;;7.35;3.67;;;12.70;99.90;;;;;;4996021;28;20038;-88